Augusta, Michigan
Current Conditions -  °F | °C
As of 9:53 AM on Monday 24 Nov 2014 (Local Time) from KBTL Reporting Station
Overcast Overcast  
Wind Chill: 53°   Ceiling: 800
Heat Index: 53°   Visibility: 10mi
Dew Point: 50°   Wind: 8mph
Humidity: 89%   Direction: 210°SSW
Pressure: 29.08"   Gusts: NA
Location:  42.34°N, 85.35°W
Report Text: KBTL 241453Z 21007KT 10SM OVC008 12/10 A2908 RMK AO2 RAE39 CIG 005V010 SLP846 P0002 60005 T01170100 58007
Loading
Personal Weather Stations






























Interactive Weather Map New forecast layout! Learn more

10-Day Weather Forecast

Advertisements
Track Severe Weather on mobile